createdAt,value
2018-09-28T00:00:12.109Z,11.80
2018-09-28T00:02:39.694Z,11.80
2018-09-28T00:05:07.276Z,11.70
2018-09-28T00:07:34.849Z,11.70
2018-09-28T00:10:02.453Z,11.60
2018-09-28T00:12:30.565Z,11.40
2018-09-28T00:14:58.112Z,11.40
2018-09-28T00:17:25.701Z,11.40
2018-09-28T00:19:53.257Z,11.50
2018-09-28T00:22:20.817Z,11.50
2018-09-28T00:24:48.381Z,11.40
2018-09-28T00:27:15.937Z,11.30
2018-09-28T00:29:43.473Z,11.20
2018-09-28T00:32:11.037Z,11.10
2018-09-28T00:34:38.587Z,11.10
2018-09-28T00:37:06.157Z,11.10
2018-09-28T00:39:33.734Z,11.10
2018-09-28T00:42:01.307Z,11.10
2018-09-28T00:44:29.661Z,11.00
2018-09-28T00:46:57.250Z,11.00
2018-09-28T00:49:24.805Z,11.00
2018-09-28T00:51:52.401Z,10.80
2018-09-28T00:54:19.980Z,10.90
2018-09-28T00:56:48.438Z,10.90
2018-09-28T00:59:15.981Z,10.90
2018-09-28T01:01:43.541Z,10.90
2018-09-28T01:04:11.092Z,10.80
2018-09-28T01:06:38.648Z,10.70
2018-09-28T01:09:08.221Z,10.70
2018-09-28T01:11:35.805Z,10.70
2018-09-28T01:14:03.441Z,10.60
2018-09-28T01:16:31.028Z,10.60
2018-09-28T01:18:58.617Z,10.50
2018-09-28T01:21:26.176Z,10.50
2018-09-28T01:23:53.753Z,10.50
2018-09-28T01:26:21.346Z,10.50
2018-09-28T01:28:48.916Z,10.50
2018-09-28T01:31:16.473Z,10.40
2018-09-28T01:33:44.040Z,10.40
2018-09-28T01:36:11.777Z,10.40
2018-09-28T01:38:39.369Z,10.40
2018-09-28T01:41:06.905Z,10.40
2018-09-28T01:43:34.497Z,10.40
2018-09-28T01:46:02.052Z,10.50
2018-09-28T01:48:29.649Z,10.40
2018-09-28T01:50:57.188Z,10.40
2018-09-28T01:53:25.164Z,10.40
2018-09-28T01:55:52.720Z,10.40
2018-09-28T01:58:20.296Z,10.30
2018-09-28T02:00:47.862Z,10.20
2018-09-28T02:03:15.457Z,10.20
2018-09-28T02:05:43.017Z,10.20
2018-09-28T02:08:10.601Z,10.20
2018-09-28T02:10:38.401Z,10.20
2018-09-28T02:13:05.957Z,10.10
2018-09-28T02:15:34.102Z,10.20
2018-09-28T02:18:01.689Z,10.10
2018-09-28T02:20:29.242Z,10.10
2018-09-28T02:22:56.802Z,10.00
2018-09-28T02:27:52.108Z,9.90
2018-09-28T02:30:19.660Z,9.90
2018-09-28T02:32:47.212Z,9.90
2018-09-28T02:35:14.809Z,9.90
2018-09-28T02:37:42.353Z,9.90
2018-09-28T02:40:10.793Z,9.80
2018-09-28T02:42:38.413Z,9.80
2018-09-28T02:45:06.071Z,9.80
2018-09-28T02:47:40.069Z,9.80
2018-09-28T02:50:07.696Z,9.80
2018-09-28T02:52:35.337Z,9.70
2018-09-28T02:55:17.695Z,9.70
2018-09-28T02:57:45.257Z,9.70
2018-09-28T03:00:12.965Z,9.70
2018-09-28T03:02:40.517Z,9.70
2018-09-28T03:05:08.109Z,9.70
2018-09-28T03:07:35.682Z,9.60
2018-09-28T03:10:03.317Z,9.60
2018-09-28T03:12:30.876Z,9.50
2018-09-28T03:14:58.494Z,9.50
2018-09-28T03:17:26.233Z,9.50
2018-09-28T03:19:53.866Z,9.50
2018-09-28T03:22:21.422Z,9.50
2018-09-28T03:24:49.035Z,9.50
2018-09-28T03:27:16.590Z,9.50
2018-09-28T03:29:44.209Z,9.70
2018-09-28T03:32:11.780Z,9.60
2018-09-28T03:34:39.357Z,9.50
2018-09-28T03:37:06.917Z,9.50
2018-09-28T03:39:34.523Z,9.50
2018-09-28T03:42:02.110Z,9.60
2018-09-28T03:44:29.669Z,9.60
2018-09-28T03:46:57.446Z,9.60
2018-09-28T03:49:25.432Z,9.50
2018-09-28T03:51:52.974Z,9.50
2018-09-28T03:54:20.558Z,9.50
2018-09-28T03:56:48.145Z,9.40
2018-09-28T03:59:15.706Z,9.40
2018-09-28T04:01:43.744Z,9.40
2018-09-28T04:04:11.449Z,9.30
2018-09-28T04:06:39.149Z,9.40
2018-09-28T04:09:08.213Z,9.30
2018-09-28T04:11:35.926Z,9.30
2018-09-28T04:14:03.666Z,9.20
2018-09-28T04:16:31.297Z,9.30
2018-09-28T04:18:58.847Z,9.20
2018-09-28T04:21:26.433Z,9.20
2018-09-28T04:23:54.453Z,9.20
2018-09-28T04:26:22.085Z,9.10
2018-09-28T04:28:49.629Z,9.20
2018-09-28T04:31:17.321Z,9.20
2018-09-28T04:33:47.841Z,9.10
2018-09-28T04:36:15.442Z,9.10
2018-09-28T04:38:43.064Z,9.00
2018-09-28T04:41:10.648Z,9.00
2018-09-28T04:43:38.240Z,8.90
2018-09-28T04:46:10.917Z,9.00
2018-09-28T04:48:38.496Z,9.00
2018-09-28T04:51:06.077Z,9.00
2018-09-28T04:53:33.713Z,9.00
2018-09-28T04:56:01.305Z,9.00
2018-09-28T04:58:28.849Z,9.00
2018-09-28T05:00:56.633Z,9.00
2018-09-28T05:03:24.189Z,9.00
2018-09-28T05:05:54.760Z,9.00
2018-09-28T05:08:22.326Z,8.90
2018-09-28T05:10:49.959Z,8.90
2018-09-28T05:13:17.510Z,8.90
2018-09-28T05:15:48.869Z,8.80
2018-09-28T05:18:16.409Z,8.80
2018-09-28T05:20:44.022Z,8.90
2018-09-28T05:23:11.618Z,8.80
2018-09-28T05:25:39.216Z,8.90
2018-09-28T05:28:06.802Z,8.90
2018-09-28T05:30:34.433Z,8.80
2018-09-28T05:33:02.162Z,8.80
2018-09-28T05:35:29.735Z,8.80
2018-09-28T05:37:57.296Z,8.80
2018-09-28T05:40:24.877Z,8.80
2018-09-28T05:42:52.443Z,8.80
2018-09-28T05:45:19.993Z,8.80
2018-09-28T05:47:47.589Z,8.90
2018-09-28T05:50:15.182Z,8.90
2018-09-28T05:52:42.752Z,9.00
2018-09-28T05:55:10.315Z,9.00
2018-09-28T05:57:37.902Z,9.00
2018-09-28T06:00:11.024Z,9.10
2018-09-28T06:02:44.149Z,9.10
2018-09-28T06:05:17.980Z,9.10
2018-09-28T06:07:45.561Z,9.20
2018-09-28T06:10:13.104Z,9.20
2018-09-28T06:12:40.782Z,9.20
2018-09-28T06:15:09.507Z,9.20
2018-09-28T06:17:37.173Z,9.20
2018-09-28T06:20:05.673Z,9.30
2018-09-28T06:22:34.179Z,9.30
2018-09-28T06:25:01.788Z,9.30
2018-09-28T06:27:29.397Z,9.40
2018-09-28T06:29:56.975Z,9.50
2018-09-28T06:32:29.429Z,9.60
2018-09-28T06:34:59.590Z,9.70
2018-09-28T06:37:27.901Z,9.80
2018-09-28T06:39:55.464Z,10.00
2018-09-28T06:42:23.137Z,10.10
2018-09-28T06:44:50.700Z,10.20
2018-09-28T06:47:18.277Z,10.30
2018-09-28T06:49:45.969Z,10.40
2018-09-28T06:52:13.585Z,10.50
2018-09-28T06:54:41.148Z,10.60
2018-09-28T06:57:08.761Z,10.80
2018-09-28T06:59:36.355Z,10.90
2018-09-28T07:02:04.086Z,11.00
2018-09-28T07:04:31.761Z,11.10
2018-09-28T07:06:59.418Z,11.20
2018-09-28T07:09:27.568Z,11.30
2018-09-28T07:11:55.189Z,11.50
2018-09-28T07:14:22.705Z,11.70
2018-09-28T07:16:50.575Z,11.80
2018-09-28T07:19:18.298Z,11.70
2018-09-28T07:21:46.017Z,11.70
2018-09-28T07:24:13.821Z,11.60
2018-09-28T07:26:42.012Z,11.50
2018-09-28T07:29:10.161Z,11.60
2018-09-28T07:31:37.730Z,11.80
2018-09-28T07:34:05.342Z,11.90
2018-09-28T07:36:33.061Z,12.10
2018-09-28T07:39:00.568Z,12.20
2018-09-28T07:41:28.130Z,12.20
2018-09-28T07:43:55.785Z,12.30
2018-09-28T07:46:23.349Z,12.30
2018-09-28T07:48:50.989Z,12.30
2018-09-28T07:51:18.533Z,12.40
2018-09-28T07:53:46.260Z,12.40
2018-09-28T07:56:13.888Z,12.50
2018-09-28T07:58:41.783Z,12.50
2018-09-28T08:01:09.383Z,12.50
2018-09-28T08:03:36.979Z,12.40
2018-09-28T08:06:05.027Z,12.50
2018-09-28T08:08:33.538Z,12.50
2018-09-28T08:11:01.689Z,12.50
2018-09-28T08:13:29.663Z,12.50
2018-09-28T08:15:57.226Z,12.40
2018-09-28T08:18:24.971Z,12.50
2018-09-28T08:20:52.578Z,12.50
2018-09-28T08:23:20.306Z,12.50
2018-09-28T08:25:48.177Z,12.40
2018-09-28T08:28:16.424Z,12.40
2018-09-28T08:30:44.077Z,12.40
2018-09-28T08:33:11.674Z,12.50
2018-09-28T08:35:39.255Z,12.30
2018-09-28T08:38:06.792Z,12.10
2018-09-28T08:40:35.869Z,12.00
2018-09-28T08:43:03.493Z,11.90
2018-09-28T08:45:31.304Z,11.90
2018-09-28T08:47:58.941Z,11.90
2018-09-28T08:50:26.549Z,11.90
2018-09-28T08:52:54.107Z,11.90
2018-09-28T08:55:21.705Z,12.00
2018-09-28T08:57:49.461Z,11.90
2018-09-28T09:00:17.086Z,12.00
2018-09-28T09:02:44.645Z,11.80
2018-09-28T09:05:14.346Z,12.00
2018-09-28T09:07:41.916Z,12.00
2018-09-28T09:10:09.778Z,11.90
2018-09-28T09:12:37.333Z,11.90
2018-09-28T09:15:09.355Z,11.90
2018-09-28T09:17:37.149Z,11.90
2018-09-28T09:20:04.883Z,12.00
2018-09-28T09:22:32.495Z,12.00
2018-09-28T09:25:00.309Z,12.00
2018-09-28T09:27:28.081Z,11.90
2018-09-28T09:29:55.790Z,11.90
2018-09-28T09:32:23.416Z,12.00
2018-09-28T09:34:51.029Z,12.00
2018-09-28T09:37:18.646Z,12.00
2018-09-28T09:39:46.542Z,12.20
2018-09-28T09:42:14.122Z,12.20
2018-09-28T09:44:42.037Z,12.20
2018-09-28T09:47:09.604Z,12.30
2018-09-28T09:49:37.313Z,12.30
2018-09-28T09:52:04.897Z,12.40
2018-09-28T09:54:32.490Z,12.40
2018-09-28T09:57:00.050Z,12.30
2018-09-28T09:59:27.679Z,12.40
2018-09-28T10:02:00.690Z,12.40
2018-09-28T10:04:28.289Z,12.40
2018-09-28T10:06:55.866Z,12.40
2018-09-28T10:09:24.097Z,12.40
2018-09-28T10:11:56.470Z,12.40
2018-09-28T10:14:24.214Z,12.40
2018-09-28T10:16:52.677Z,12.40
2018-09-28T10:19:20.308Z,12.60
2018-09-28T10:21:47.953Z,12.60
2018-09-28T10:24:15.527Z,12.70
2018-09-28T10:26:43.065Z,12.80
2018-09-28T10:29:10.908Z,12.80
2018-09-28T10:31:38.548Z,12.90
2018-09-28T10:34:06.224Z,13.00
2018-09-28T10:36:33.773Z,13.10
2018-09-28T10:39:01.350Z,13.10
2018-09-28T10:41:28.904Z,13.10
2018-09-28T10:43:56.495Z,13.10
2018-09-28T10:46:24.120Z,13.20
2018-09-28T10:48:51.724Z,13.10
2018-09-28T10:51:19.450Z,13.20
2018-09-28T10:53:46.950Z,13.20
2018-09-28T10:56:14.520Z,13.20
2018-09-28T10:58:42.139Z,13.20
2018-09-28T11:01:09.737Z,13.30
2018-09-28T11:03:37.355Z,13.20
2018-09-28T11:06:05.113Z,13.20
2018-09-28T11:08:32.768Z,13.20
2018-09-28T11:11:00.365Z,13.20
2018-09-28T11:13:28.386Z,13.20
2018-09-28T11:15:56.427Z,13.10
2018-09-28T11:18:24.009Z,13.20
2018-09-28T11:20:51.585Z,13.10
2018-09-28T11:23:19.697Z,13.10
2018-09-28T11:25:47.749Z,13.10
2018-09-28T11:28:15.721Z,13.20
2018-09-28T11:30:43.297Z,13.20
2018-09-28T11:33:10.887Z,13.20
2018-09-28T11:35:38.542Z,13.20
2018-09-28T11:38:06.105Z,13.20
2018-09-28T11:40:33.729Z,13.00
2018-09-28T11:43:01.295Z,13.00
2018-09-28T11:45:29.001Z,13.00
2018-09-28T11:47:56.491Z,13.00
2018-09-28T11:50:24.086Z,13.10
2018-09-28T11:52:51.685Z,13.10
2018-09-28T11:55:19.322Z,13.10
2018-09-28T11:57:46.915Z,13.10
2018-09-28T12:00:14.787Z,13.00
2018-09-28T12:02:42.353Z,13.00
2018-09-28T12:05:12.014Z,13.00
2018-09-28T12:07:39.552Z,13.10
2018-09-28T12:10:07.893Z,13.20
2018-09-28T12:12:35.675Z,13.30
2018-09-28T12:15:03.365Z,13.30
2018-09-28T12:17:30.965Z,13.30
2018-09-28T12:19:59.070Z,13.30
2018-09-28T12:22:26.643Z,13.50
2018-09-28T12:24:54.402Z,13.30
2018-09-28T12:27:22.017Z,13.30
2018-09-28T12:29:49.594Z,13.30
2018-09-28T12:32:17.170Z,13.40
2018-09-28T12:34:44.765Z,13.40
2018-09-28T12:37:12.304Z,13.30
2018-09-28T12:39:40.000Z,13.20
2018-09-28T12:42:07.689Z,13.10
2018-09-28T12:44:35.311Z,13.00
2018-09-28T12:47:02.932Z,13.00
2018-09-28T12:49:30.513Z,13.20
2018-09-28T12:51:58.534Z,13.30
2018-09-28T12:54:26.133Z,13.40
2018-09-28T12:56:53.723Z,13.30
2018-09-28T12:59:21.281Z,13.50
2018-09-28T13:01:48.858Z,13.50
2018-09-28T13:04:17.023Z,13.40
2018-09-28T13:06:45.621Z,13.50
2018-09-28T13:09:13.198Z,13.60
2018-09-28T13:11:40.921Z,13.70
2018-09-28T13:14:09.056Z,13.60
2018-09-28T13:16:36.803Z,13.50
2018-09-28T13:19:04.366Z,13.60
2018-09-28T13:21:31.939Z,13.70
2018-09-28T13:23:59.728Z,13.80
2018-09-28T13:26:27.425Z,13.90
2018-09-28T13:28:55.004Z,13.90
2018-09-28T13:31:22.850Z,13.90
2018-09-28T13:33:53.445Z,13.90
2018-09-28T13:36:21.106Z,13.70
2018-09-28T13:38:48.786Z,13.70
2018-09-28T13:41:16.353Z,13.70
2018-09-28T13:43:43.974Z,13.80
2018-09-28T13:46:11.668Z,13.60
2018-09-28T13:48:39.125Z,13.50
2018-09-28T13:51:06.753Z,13.40
2018-09-28T13:53:34.390Z,13.50
2018-09-28T13:56:02.265Z,13.50
2018-09-28T13:58:29.858Z,13.50
2018-09-28T14:00:57.477Z,13.50
2018-09-28T14:03:25.201Z,13.50
2018-09-28T14:05:52.893Z,13.50
2018-09-28T14:08:21.319Z,13.50
2018-09-28T14:10:48.933Z,13.60
2018-09-28T14:13:16.486Z,13.60
2018-09-28T14:15:44.090Z,13.70
2018-09-28T14:18:11.740Z,13.70
2018-09-28T14:20:39.548Z,13.90
2018-09-28T14:23:07.157Z,14.10
2018-09-28T14:25:34.943Z,14.30
2018-09-28T14:28:03.020Z,14.50
2018-09-28T14:30:30.567Z,14.60
2018-09-28T14:32:58.181Z,14.80
2018-09-28T14:35:25.871Z,15.00
2018-09-28T14:37:53.449Z,15.20
2018-09-28T14:40:21.552Z,15.00
2018-09-28T14:42:49.185Z,14.90
2018-09-28T14:45:17.045Z,14.90
2018-09-28T14:47:44.621Z,15.00
2018-09-28T14:50:12.257Z,14.90
2018-09-28T14:52:39.808Z,14.80
2018-09-28T14:55:07.142Z,14.80
2018-09-28T14:57:34.774Z,14.80
2018-09-28T15:00:03.720Z,14.80
2018-09-28T15:02:31.333Z,14.70
2018-09-28T15:04:58.893Z,14.70
2018-09-28T15:07:26.505Z,14.90
2018-09-28T15:09:54.068Z,15.10
2018-09-28T15:12:21.691Z,16.00
2018-09-28T15:14:49.324Z,17.40
2018-09-28T15:17:17.630Z,18.60
2018-09-28T15:19:45.176Z,19.30
2018-09-28T15:22:12.745Z,19.70
2018-09-28T15:24:40.401Z,19.50
2018-09-28T15:27:07.993Z,19.60
2018-09-28T15:29:35.622Z,19.70
2018-09-28T15:32:03.190Z,19.00
2018-09-28T15:34:30.753Z,18.60
2018-09-28T15:36:58.351Z,18.40
2018-09-28T15:39:26.308Z,18.20
2018-09-28T15:41:54.233Z,18.10
2018-09-28T15:44:22.274Z,17.70
2018-09-28T15:46:50.234Z,17.60
2018-09-28T15:49:17.833Z,17.20
2018-09-28T15:51:45.413Z,16.90
2018-09-28T15:55:16.472Z,16.70
2018-09-28T15:57:44.112Z,16.50
2018-09-28T16:00:11.711Z,16.30
2018-09-28T16:02:39.309Z,16.20
2018-09-28T16:05:07.331Z,16.00
2018-09-28T16:07:34.941Z,15.90
2018-09-28T16:10:02.577Z,16.00
2018-09-28T16:12:30.181Z,16.30
2018-09-28T16:14:57.784Z,16.50
2018-09-28T16:17:25.348Z,16.60
2018-09-28T16:19:52.896Z,16.70
2018-09-28T16:22:20.496Z,17.50
2018-09-28T16:24:48.114Z,19.50
2018-09-28T16:27:15.645Z,21.10
2018-09-28T16:29:43.257Z,22.30
2018-09-28T16:32:10.812Z,22.90
2018-09-28T16:34:38.376Z,22.10
2018-09-28T16:37:06.238Z,21.80
2018-09-28T16:39:33.889Z,21.40
2018-09-28T16:42:01.429Z,20.40
2018-09-28T16:44:29.010Z,19.50
2018-09-28T16:46:56.766Z,18.50
2018-09-28T16:49:24.368Z,17.80
2018-09-28T16:51:51.912Z,17.20
2018-09-28T16:54:19.494Z,16.70
2018-09-28T16:56:47.167Z,15.80
2018-09-28T16:59:16.712Z,15.10
2018-09-28T17:01:45.394Z,14.70
2018-09-28T17:04:13.669Z,14.30
2018-09-28T17:06:41.640Z,14.00
2018-09-28T17:09:09.963Z,13.70
2018-09-28T17:11:37.658Z,13.40
2018-09-28T17:14:05.482Z,13.20
2018-09-28T17:16:33.035Z,13.10
2018-09-28T17:19:01.325Z,13.00
2018-09-28T17:21:29.098Z,13.10
2018-09-28T17:23:57.261Z,13.10
2018-09-28T17:26:24.829Z,13.00
2018-09-28T17:28:52.825Z,13.00
2018-09-28T17:31:20.361Z,13.00
2018-09-28T17:33:48.258Z,13.00
2018-09-28T17:36:15.857Z,13.00
2018-09-28T17:38:43.435Z,12.90
2018-09-28T17:41:11.214Z,12.90
2018-09-28T17:43:38.777Z,12.90
2018-09-28T17:46:06.570Z,12.90
2018-09-28T17:48:34.234Z,12.80
2018-09-28T17:51:01.865Z,12.80
2018-09-28T17:53:30.466Z,12.80
2018-09-28T17:55:58.089Z,12.80
2018-09-28T17:58:26.364Z,12.70
2018-09-28T18:00:54.037Z,12.40
2018-09-28T18:03:21.561Z,12.30
2018-09-28T18:05:49.414Z,12.10
2018-09-28T18:08:16.957Z,12.10
2018-09-28T18:10:44.686Z,12.00
2018-09-28T18:13:12.446Z,12.00
2018-09-28T18:15:40.034Z,11.90
2018-09-28T18:18:07.620Z,11.80
2018-09-28T18:20:35.266Z,11.70
2018-09-28T18:23:03.748Z,11.60
2018-09-28T18:25:31.346Z,11.50
2018-09-28T18:27:58.934Z,11.50
2018-09-28T18:30:26.541Z,11.50
2018-09-28T18:32:54.114Z,11.30
2018-09-28T18:35:22.435Z,11.40
2018-09-28T18:37:50.253Z,11.30
2018-09-28T18:40:17.821Z,11.30
2018-09-28T18:42:45.913Z,11.30
2018-09-28T18:45:13.648Z,11.20
2018-09-28T18:47:50.204Z,11.10
2018-09-28T18:50:18.485Z,11.00
2018-09-28T18:52:46.090Z,10.90
2018-09-28T18:55:15.100Z,10.80
2018-09-28T18:57:42.726Z,10.80
2018-09-28T19:00:11.311Z,10.80
2018-09-28T19:02:39.173Z,10.70
2018-09-28T19:05:07.283Z,10.70
2018-09-28T19:07:34.949Z,10.70
2018-09-28T19:10:02.521Z,10.60
2018-09-28T19:12:30.210Z,10.40
2018-09-28T19:14:57.701Z,10.30
2018-09-28T19:17:25.385Z,10.30
2018-09-28T19:19:52.945Z,10.30
2018-09-28T19:22:20.757Z,10.10
2018-09-28T19:24:48.433Z,10.10
2018-09-28T19:27:21.937Z,10.00
2018-09-28T19:29:49.586Z,10.00
2018-09-28T19:32:17.282Z,10.00
2018-09-28T19:34:44.852Z,10.10
2018-09-28T19:37:12.490Z,10.30
2018-09-28T19:39:40.053Z,10.50
2018-09-28T19:42:07.665Z,10.60
2018-09-28T19:44:35.466Z,10.60
2018-09-28T19:47:03.049Z,10.60
2018-09-28T19:49:30.943Z,10.50
2018-09-28T19:51:58.505Z,10.50
2018-09-28T19:54:26.112Z,10.50
2018-09-28T19:56:53.666Z,10.50
2018-09-28T19:59:22.093Z,10.60
2018-09-28T20:01:49.873Z,10.60
2018-09-28T20:04:17.554Z,10.50
2018-09-28T20:06:45.128Z,10.50
2018-09-28T20:09:12.701Z,10.50
2018-09-28T20:11:40.557Z,10.50
2018-09-28T20:14:09.529Z,10.60
2018-09-28T20:16:37.128Z,10.60
2018-09-28T20:19:04.770Z,10.60
2018-09-28T20:21:33.313Z,10.70
2018-09-28T20:24:01.047Z,10.60
2018-09-28T20:26:28.602Z,10.70
2018-09-28T20:28:56.153Z,10.60
2018-09-28T20:31:23.781Z,10.60
2018-09-28T20:33:51.460Z,10.60
2018-09-28T20:36:19.091Z,10.50
2018-09-28T20:38:46.661Z,10.40
2018-09-28T20:41:14.453Z,10.40
2018-09-28T20:43:42.077Z,10.40
2018-09-28T20:46:09.742Z,10.40
2018-09-28T20:48:37.430Z,10.30
2018-09-28T20:51:05.043Z,10.20
2018-09-28T20:53:32.682Z,10.10
2018-09-28T20:56:00.397Z,10.10
2018-09-28T20:58:27.961Z,10.00
2018-09-28T21:00:55.560Z,9.90
2018-09-28T21:03:23.132Z,9.90
2018-09-28T21:05:50.706Z,9.90
2018-09-28T21:08:18.426Z,9.80
2018-09-28T21:10:46.025Z,9.90
2018-09-28T21:13:13.626Z,9.80
2018-09-28T21:15:41.249Z,9.80
2018-09-28T21:18:08.820Z,9.80
2018-09-28T21:20:36.362Z,9.80
2018-09-28T21:23:03.929Z,9.70
2018-09-28T21:25:31.489Z,9.80
2018-09-28T21:27:59.045Z,9.70
2018-09-28T21:30:26.636Z,9.70
2018-09-28T21:32:54.228Z,9.60
2018-09-28T21:35:22.811Z,9.50
2018-09-28T21:37:50.493Z,9.50
2018-09-28T21:40:18.033Z,9.40
2018-09-28T21:42:45.829Z,9.30
2018-09-28T21:45:13.661Z,9.30
2018-09-28T21:47:41.238Z,9.40
2018-09-28T21:50:08.801Z,9.40
2018-09-28T21:52:36.370Z,9.40
2018-09-28T21:55:03.933Z,9.30
2018-09-28T21:57:31.492Z,9.10
2018-09-28T21:59:59.167Z,9.10
2018-09-28T22:02:26.741Z,9.10
2018-09-28T22:04:54.350Z,9.00
2018-09-28T22:07:22.018Z,8.90
2018-09-28T22:09:49.541Z,8.90
2018-09-28T22:12:17.136Z,8.90
2018-09-28T22:14:44.690Z,8.80
2018-09-28T22:17:12.281Z,8.80
2018-09-28T22:19:39.804Z,8.80
2018-09-28T22:22:07.389Z,8.70
2018-09-28T22:24:34.934Z,8.60
2018-09-28T22:27:02.514Z,8.70
2018-09-28T22:29:30.056Z,8.60
2018-09-28T22:31:57.661Z,8.60
2018-09-28T22:34:25.193Z,8.60
2018-09-28T22:36:52.857Z,8.50
2018-09-28T22:39:20.753Z,8.50
2018-09-28T22:41:48.297Z,8.40
2018-09-28T22:44:15.850Z,8.30
2018-09-28T22:46:43.369Z,8.30
2018-09-28T22:49:10.985Z,8.30
2018-09-28T22:51:38.517Z,8.30
2018-09-28T22:54:06.149Z,8.20
2018-09-28T22:56:33.713Z,8.10
2018-09-28T22:59:01.273Z,8.20
2018-09-28T23:01:28.807Z,8.10
2018-09-28T23:03:56.365Z,8.10
2018-09-28T23:06:23.977Z,8.00
2018-09-28T23:08:51.513Z,8.00
2018-09-28T23:11:19.046Z,8.00
2018-09-28T23:13:46.606Z,7.90
2018-09-28T23:16:14.181Z,7.90
2018-09-28T23:18:41.726Z,7.90
2018-09-28T23:21:09.264Z,7.90
2018-09-28T23:23:36.841Z,7.90
2018-09-28T23:26:04.414Z,7.80
2018-09-28T23:28:31.977Z,7.80
2018-09-28T23:30:59.536Z,7.70
2018-09-28T23:33:27.106Z,7.70
2018-09-28T23:35:54.708Z,7.70
2018-09-28T23:38:22.293Z,7.70
2018-09-28T23:40:49.933Z,7.80
2018-09-28T23:43:17.866Z,7.80
2018-09-28T23:45:45.409Z,7.90
2018-09-28T23:48:13.125Z,7.90
2018-09-28T23:50:40.677Z,7.90
2018-09-28T23:53:08.231Z,7.90
2018-09-28T23:55:35.788Z,7.90
2018-09-28T23:58:03.377Z,7.90
